sensor_id;sensor_type;location;lat;lon;timestamp;temperature;humidity
22623;DHT22;11478;51.094;7.030;2022-08-19T00:02:01;16.00;99.90
22623;DHT22;11478;51.094;7.030;2022-08-19T00:04:33;16.00;99.90
22623;DHT22;11478;51.094;7.030;2022-08-19T00:07:02;16.00;99.90
22623;DHT22;11478;51.094;7.030;2022-08-19T00:12:19;16.00;99.90
22623;DHT22;11478;51.094;7.030;2022-08-19T00:14:49;15.90;99.90
22623;DHT22;11478;51.094;7.030;2022-08-19T00:17:15;15.90;99.90
22623;DHT22;11478;51.094;7.030;2022-08-19T00:19:46;15.90;99.90
22623;DHT22;11478;51.094;7.030;2022-08-19T00:22:12;15.90;99.90
22623;DHT22;11478;51.094;7.030;2022-08-19T00:24:41;15.90;99.90
22623;DHT22;11478;51.094;7.030;2022-08-19T00:27:09;15.80;99.90
22623;DHT22;11478;51.094;7.030;2022-08-19T00:29:50;15.80;99.90
22623;DHT22;11478;51.094;7.030;2022-08-19T00:32:16;15.70;99.90
22623;DHT22;11478;51.094;7.030;2022-08-19T00:34:43;15.70;99.90
22623;DHT22;11478;51.094;7.030;2022-08-19T00:37:09;15.70;99.90
22623;DHT22;11478;51.094;7.030;2022-08-19T00:39:40;15.70;99.90
22623;DHT22;11478;51.094;7.030;2022-08-19T00:42:06;15.60;99.90
22623;DHT22;11478;51.094;7.030;2022-08-19T00:44:32;15.60;99.90
22623;DHT22;11478;51.094;7.030;2022-08-19T00:46:58;15.50;99.90
22623;DHT22;11478;51.094;7.030;2022-08-19T00:49:29;15.50;99.90
22623;DHT22;11478;51.094;7.030;2022-08-19T00:52:03;15.50;99.90
22623;DHT22;11478;51.094;7.030;2022-08-19T00:54:30;15.50;99.90
22623;DHT22;11478;51.094;7.030;2022-08-19T00:57:10;15.50;99.90
22623;DHT22;11478;51.094;7.030;2022-08-19T00:59:39;15.60;99.90
22623;DHT22;11478;51.094;7.030;2022-08-19T01:02:06;15.60;99.90
22623;DHT22;11478;51.094;7.030;2022-08-19T01:04:32;15.60;99.90
22623;DHT22;11478;51.094;7.030;2022-08-19T01:06:59;15.50;99.90
22623;DHT22;11478;51.094;7.030;2022-08-19T01:09:25;15.50;99.90
22623;DHT22;11478;51.094;7.030;2022-08-19T01:11:54;15.40;99.90
22623;DHT22;11478;51.094;7.030;2022-08-19T01:14:20;15.50;99.90
22623;DHT22;11478;51.094;7.030;2022-08-19T01:16:53;15.50;99.90
22623;DHT22;11478;51.094;7.030;2022-08-19T01:19:29;15.40;99.90
22623;DHT22;11478;51.094;7.030;2022-08-19T01:22:58;15.40;99.90
22623;DHT22;11478;51.094;7.030;2022-08-19T01:25:20;15.40;99.90
22623;DHT22;11478;51.094;7.030;2022-08-19T01:28:05;15.40;99.90
22623;DHT22;11478;51.094;7.030;2022-08-19T01:30:35;15.40;99.90
22623;DHT22;11478;51.094;7.030;2022-08-19T01:33:02;15.40;99.90
22623;DHT22;11478;51.094;7.030;2022-08-19T01:35:29;15.30;99.90
22623;DHT22;11478;51.094;7.030;2022-08-19T01:38:21;15.30;99.90
22623;DHT22;11478;51.094;7.030;2022-08-19T01:40:48;15.20;99.90
22623;DHT22;11478;51.094;7.030;2022-08-19T01:43:14;15.20;99.90
22623;DHT22;11478;51.094;7.030;2022-08-19T01:45:40;15.20;99.90
22623;DHT22;11478;51.094;7.030;2022-08-19T01:48:12;15.20;99.90
22623;DHT22;11478;51.094;7.030;2022-08-19T01:50:38;15.20;99.90
22623;DHT22;11478;51.094;7.030;2022-08-19T01:53:09;15.20;99.90
22623;DHT22;11478;51.094;7.030;2022-08-19T01:55:37;15.20;99.90
22623;DHT22;11478;51.094;7.030;2022-08-19T01:58:05;15.20;99.90
22623;DHT22;11478;51.094;7.030;2022-08-19T02:00:33;15.20;99.90
22623;DHT22;11478;51.094;7.030;2022-08-19T02:02:59;15.20;99.90
22623;DHT22;11478;51.094;7.030;2022-08-19T02:05:26;15.20;99.90
22623;DHT22;11478;51.094;7.030;2022-08-19T02:07:56;15.20;99.90
22623;DHT22;11478;51.094;7.030;2022-08-19T02:10:23;15.20;99.90
22623;DHT22;11478;51.094;7.030;2022-08-19T02:12:50;15.20;99.90
22623;DHT22;11478;51.094;7.030;2022-08-19T02:15:17;15.10;99.90
22623;DHT22;11478;51.094;7.030;2022-08-19T02:17:52;15.10;99.90
22623;DHT22;11478;51.094;7.030;2022-08-19T02:20:18;15.10;99.90
22623;DHT22;11478;51.094;7.030;2022-08-19T02:22:51;15.10;99.90
22623;DHT22;11478;51.094;7.030;2022-08-19T02:25:17;15.10;99.90
22623;DHT22;11478;51.094;7.030;2022-08-19T02:27:50;15.10;99.90
22623;DHT22;11478;51.094;7.030;2022-08-19T02:30:17;15.10;99.90
22623;DHT22;11478;51.094;7.030;2022-08-19T02:32:43;15.10;99.90
22623;DHT22;11478;51.094;7.030;2022-08-19T02:35:10;15.10;99.90
22623;DHT22;11478;51.094;7.030;2022-08-19T02:37:36;15.10;99.90
22623;DHT22;11478;51.094;7.030;2022-08-19T02:40:20;15.10;99.90
22623;DHT22;11478;51.094;7.030;2022-08-19T02:42:51;15.10;99.90
22623;DHT22;11478;51.094;7.030;2022-08-19T02:45:20;15.00;99.90
22623;DHT22;11478;51.094;7.030;2022-08-19T02:47:46;15.00;99.90
22623;DHT22;11478;51.094;7.030;2022-08-19T02:50:19;15.00;99.90
22623;DHT22;11478;51.094;7.030;2022-08-19T02:52:52;15.00;99.90
22623;DHT22;11478;51.094;7.030;2022-08-19T02:55:18;15.00;99.90
22623;DHT22;11478;51.094;7.030;2022-08-19T02:57:49;15.00;99.90
22623;DHT22;11478;51.094;7.030;2022-08-19T03:00:16;15.00;99.90
22623;DHT22;11478;51.094;7.030;2022-08-19T03:02:42;15.00;99.90
22623;DHT22;11478;51.094;7.030;2022-08-19T03:05:09;15.00;99.90
22623;DHT22;11478;51.094;7.030;2022-08-19T03:07:37;15.00;99.90
22623;DHT22;11478;51.094;7.030;2022-08-19T03:10:03;15.00;99.90
22623;DHT22;11478;51.094;7.030;2022-08-19T03:12:31;15.00;99.90
22623;DHT22;11478;51.094;7.030;2022-08-19T03:14:56;14.90;99.90
22623;DHT22;11478;51.094;7.030;2022-08-19T03:17:27;15.00;99.90
22623;DHT22;11478;51.094;7.030;2022-08-19T03:19:53;14.90;99.90
22623;DHT22;11478;51.094;7.030;2022-08-19T03:22:19;14.90;99.90
22623;DHT22;11478;51.094;7.030;2022-08-19T03:24:47;14.80;99.90
22623;DHT22;11478;51.094;7.030;2022-08-19T03:27:15;14.80;99.90
22623;DHT22;11478;51.094;7.030;2022-08-19T03:29:40;14.80;99.90
22623;DHT22;11478;51.094;7.030;2022-08-19T03:32:06;14.80;99.90
22623;DHT22;11478;51.094;7.030;2022-08-19T03:34:33;14.80;99.90
22623;DHT22;11478;51.094;7.030;2022-08-19T03:37:08;14.80;99.90
22623;DHT22;11478;51.094;7.030;2022-08-19T03:39:36;14.80;99.90
22623;DHT22;11478;51.094;7.030;2022-08-19T03:42:18;14.70;99.90
22623;DHT22;11478;51.094;7.030;2022-08-19T03:44:43;14.70;99.90
22623;DHT22;11478;51.094;7.030;2022-08-19T03:47:10;14.70;99.90
22623;DHT22;11478;51.094;7.030;2022-08-19T03:49:41;14.70;99.90
22623;DHT22;11478;51.094;7.030;2022-08-19T03:52:07;14.70;99.90
22623;DHT22;11478;51.094;7.030;2022-08-19T03:54:35;14.70;99.90
22623;DHT22;11478;51.094;7.030;2022-08-19T03:57:02;14.70;99.90
22623;DHT22;11478;51.094;7.030;2022-08-19T03:59:33;14.70;99.90
22623;DHT22;11478;51.094;7.030;2022-08-19T04:02:01;14.60;99.90
22623;DHT22;11478;51.094;7.030;2022-08-19T04:04:30;14.70;99.90
22623;DHT22;11478;51.094;7.030;2022-08-19T04:06:56;14.60;99.90
22623;DHT22;11478;51.094;7.030;2022-08-19T04:09:22;14.60;99.90
22623;DHT22;11478;51.094;7.030;2022-08-19T04:11:54;14.70;99.90
22623;DHT22;11478;51.094;7.030;2022-08-19T04:14:25;14.70;99.90
22623;DHT22;11478;51.094;7.030;2022-08-19T04:16:52;14.70;99.90
22623;DHT22;11478;51.094;7.030;2022-08-19T04:19:19;14.70;99.90
22623;DHT22;11478;51.094;7.030;2022-08-19T04:21:48;14.60;99.90
22623;DHT22;11478;51.094;7.030;2022-08-19T04:24:18;14.60;99.90
22623;DHT22;11478;51.094;7.030;2022-08-19T04:26:45;14.60;99.90
22623;DHT22;11478;51.094;7.030;2022-08-19T04:29:18;14.60;99.90
22623;DHT22;11478;51.094;7.030;2022-08-19T04:31:45;14.60;99.90
22623;DHT22;11478;51.094;7.030;2022-08-19T04:34:19;14.60;99.90
22623;DHT22;11478;51.094;7.030;2022-08-19T04:36:50;14.60;99.90
22623;DHT22;11478;51.094;7.030;2022-08-19T04:39:29;14.60;99.90
22623;DHT22;11478;51.094;7.030;2022-08-19T04:42:15;14.60;99.90
22623;DHT22;11478;51.094;7.030;2022-08-19T04:45:03;14.60;99.90
22623;DHT22;11478;51.094;7.030;2022-08-19T04:47:29;14.50;99.90
22623;DHT22;11478;51.094;7.030;2022-08-19T04:49:57;14.50;99.90
22623;DHT22;11478;51.094;7.030;2022-08-19T04:52:23;14.50;99.90
22623;DHT22;11478;51.094;7.030;2022-08-19T04:54:48;14.50;99.90
22623;DHT22;11478;51.094;7.030;2022-08-19T04:57:14;14.50;99.90
22623;DHT22;11478;51.094;7.030;2022-08-19T04:59:40;14.50;99.90
22623;DHT22;11478;51.094;7.030;2022-08-19T05:02:07;14.60;99.90
22623;DHT22;11478;51.094;7.030;2022-08-19T05:04:34;14.60;99.90
22623;DHT22;11478;51.094;7.030;2022-08-19T05:07:07;14.60;99.90
22623;DHT22;11478;51.094;7.030;2022-08-19T05:09:34;14.60;99.90
22623;DHT22;11478;51.094;7.030;2022-08-19T05:12:04;14.60;99.90
22623;DHT22;11478;51.094;7.030;2022-08-19T05:14:31;14.70;99.90
22623;DHT22;11478;51.094;7.030;2022-08-19T05:16:58;14.80;99.90
22623;DHT22;11478;51.094;7.030;2022-08-19T05:19:23;14.80;99.90
22623;DHT22;11478;51.094;7.030;2022-08-19T05:22:08;14.80;99.90
22623;DHT22;11478;51.094;7.030;2022-08-19T05:24:52;14.80;99.90
22623;DHT22;11478;51.094;7.030;2022-08-19T05:27:24;14.80;99.90
22623;DHT22;11478;51.094;7.030;2022-08-19T05:29:50;14.80;99.90
22623;DHT22;11478;51.094;7.030;2022-08-19T05:32:16;14.80;99.90
22623;DHT22;11478;51.094;7.030;2022-08-19T05:34:42;14.90;99.90
22623;DHT22;11478;51.094;7.030;2022-08-19T05:37:09;14.90;99.90
22623;DHT22;11478;51.094;7.030;2022-08-19T05:39:36;14.90;99.90
22623;DHT22;11478;51.094;7.030;2022-08-19T05:42:09;15.00;99.90
22623;DHT22;11478;51.094;7.030;2022-08-19T05:44:38;15.00;99.90
22623;DHT22;11478;51.094;7.030;2022-08-19T05:47:14;15.10;99.90
22623;DHT22;11478;51.094;7.030;2022-08-19T05:49:41;15.10;99.90
22623;DHT22;11478;51.094;7.030;2022-08-19T05:52:11;15.10;99.90
22623;DHT22;11478;51.094;7.030;2022-08-19T05:54:38;15.10;99.90
22623;DHT22;11478;51.094;7.030;2022-08-19T05:57:06;15.10;99.90
22623;DHT22;11478;51.094;7.030;2022-08-19T05:59:42;15.10;99.90
22623;DHT22;11478;51.094;7.030;2022-08-19T06:02:09;15.10;99.90
22623;DHT22;11478;51.094;7.030;2022-08-19T06:04:35;15.20;99.90
22623;DHT22;11478;51.094;7.030;2022-08-19T06:07:01;15.30;99.90
22623;DHT22;11478;51.094;7.030;2022-08-19T06:09:34;15.30;99.90
22623;DHT22;11478;51.094;7.030;2022-08-19T06:12:01;15.40;99.90
22623;DHT22;11478;51.094;7.030;2022-08-19T06:14:32;15.40;99.90
22623;DHT22;11478;51.094;7.030;2022-08-19T06:16:59;15.50;99.90
22623;DHT22;11478;51.094;7.030;2022-08-19T06:19:39;15.50;99.90
22623;DHT22;11478;51.094;7.030;2022-08-19T06:22:07;15.50;99.90
22623;DHT22;11478;51.094;7.030;2022-08-19T06:24:33;15.60;99.90
22623;DHT22;11478;51.094;7.030;2022-08-19T06:26:59;15.60;99.90
22623;DHT22;11478;51.094;7.030;2022-08-19T06:29:36;15.70;99.90
22623;DHT22;11478;51.094;7.030;2022-08-19T06:32:02;15.70;99.90
22623;DHT22;11478;51.094;7.030;2022-08-19T06:34:32;15.80;99.90
22623;DHT22;11478;51.094;7.030;2022-08-19T06:37:00;15.90;99.90
22623;DHT22;11478;51.094;7.030;2022-08-19T06:39:31;16.00;99.90
22623;DHT22;11478;51.094;7.030;2022-08-19T06:42:00;16.10;99.90
22623;DHT22;11478;51.094;7.030;2022-08-19T06:44:31;16.20;99.90
22623;DHT22;11478;51.094;7.030;2022-08-19T06:47:01;16.30;99.90
22623;DHT22;11478;51.094;7.030;2022-08-19T06:49:35;16.40;99.90
22623;DHT22;11478;51.094;7.030;2022-08-19T06:52:03;16.40;99.90
22623;DHT22;11478;51.094;7.030;2022-08-19T06:54:29;16.50;99.90
22623;DHT22;11478;51.094;7.030;2022-08-19T06:57:00;16.60;99.90
22623;DHT22;11478;51.094;7.030;2022-08-19T06:59:30;16.70;99.90
22623;DHT22;11478;51.094;7.030;2022-08-19T07:02:00;16.80;99.90
22623;DHT22;11478;51.094;7.030;2022-08-19T07:04:33;16.90;99.90
22623;DHT22;11478;51.094;7.030;2022-08-19T07:07:21;17.00;99.90
22623;DHT22;11478;51.094;7.030;2022-08-19T07:09:53;17.10;99.90
22623;DHT22;11478;51.094;7.030;2022-08-19T07:12:21;17.20;99.90
22623;DHT22;11478;51.094;7.030;2022-08-19T07:14:53;17.40;99.90
22623;DHT22;11478;51.094;7.030;2022-08-19T07:17:23;17.50;99.90
22623;DHT22;11478;51.094;7.030;2022-08-19T07:20:01;17.60;99.90
22623;DHT22;11478;51.094;7.030;2022-08-19T07:22:32;17.70;99.90
22623;DHT22;11478;51.094;7.030;2022-08-19T07:25:02;17.80;99.90
22623;DHT22;11478;51.094;7.030;2022-08-19T07:27:52;17.90;99.90
22623;DHT22;11478;51.094;7.030;2022-08-19T07:30:20;18.00;99.90
22623;DHT22;11478;51.094;7.030;2022-08-19T07:32:59;18.10;99.90
22623;DHT22;11478;51.094;7.030;2022-08-19T07:35:32;18.20;99.90
22623;DHT22;11478;51.094;7.030;2022-08-19T07:38:03;18.20;99.90
22623;DHT22;11478;51.094;7.030;2022-08-19T07:40:34;18.30;99.90
22623;DHT22;11478;51.094;7.030;2022-08-19T07:43:02;18.40;99.90
22623;DHT22;11478;51.094;7.030;2022-08-19T07:50:33;18.70;99.90
22623;DHT22;11478;51.094;7.030;2022-08-19T07:52:59;18.80;99.90
22623;DHT22;11478;51.094;7.030;2022-08-19T07:55:30;18.90;99.90
22623;DHT22;11478;51.094;7.030;2022-08-19T07:57:56;19.00;99.90
22623;DHT22;11478;51.094;7.030;2022-08-19T08:00:24;19.00;99.90
22623;DHT22;11478;51.094;7.030;2022-08-19T08:02:54;19.10;99.90
22623;DHT22;11478;51.094;7.030;2022-08-19T08:05:26;19.10;99.90
22623;DHT22;11478;51.094;7.030;2022-08-19T08:08:13;19.10;99.90
22623;DHT22;11478;51.094;7.030;2022-08-19T08:10:59;19.20;99.90
22623;DHT22;11478;51.094;7.030;2022-08-19T08:13:25;19.30;99.90
22623;DHT22;11478;51.094;7.030;2022-08-19T08:15:52;19.30;99.90
22623;DHT22;11478;51.094;7.030;2022-08-19T08:18:18;19.40;99.90
22623;DHT22;11478;51.094;7.030;2022-08-19T08:20:51;19.50;99.90
22623;DHT22;11478;51.094;7.030;2022-08-19T08:23:17;19.50;99.90
22623;DHT22;11478;51.094;7.030;2022-08-19T08:26:01;19.60;99.90
22623;DHT22;11478;51.094;7.030;2022-08-19T08:28:30;19.70;99.90
22623;DHT22;11478;51.094;7.030;2022-08-19T08:31:01;19.80;99.90
22623;DHT22;11478;51.094;7.030;2022-08-19T08:33:40;19.90;99.90
22623;DHT22;11478;51.094;7.030;2022-08-19T08:36:09;20.10;99.90
22623;DHT22;11478;51.094;7.030;2022-08-19T08:38:42;20.10;99.90
22623;DHT22;11478;51.094;7.030;2022-08-19T08:44:03;20.20;99.90
22623;DHT22;11478;51.094;7.030;2022-08-19T08:47:03;20.30;99.90
22623;DHT22;11478;51.094;7.030;2022-08-19T08:49:42;20.40;99.90
22623;DHT22;11478;51.094;7.030;2022-08-19T08:52:25;20.50;99.90
22623;DHT22;11478;51.094;7.030;2022-08-19T08:54:55;20.60;99.90
22623;DHT22;11478;51.094;7.030;2022-08-19T09:00:24;20.80;99.90
22623;DHT22;11478;51.094;7.030;2022-08-19T09:02:53;20.80;99.90
22623;DHT22;11478;51.094;7.030;2022-08-19T09:05:59;20.90;99.90
22623;DHT22;11478;51.094;7.030;2022-08-19T09:14:45;21.30;99.90
22623;DHT22;11478;51.094;7.030;2022-08-19T09:17:19;21.30;99.90
22623;DHT22;11478;51.094;7.030;2022-08-19T09:20:21;21.40;99.90
22623;DHT22;11478;51.094;7.030;2022-08-19T09:22:48;21.50;99.90
22623;DHT22;11478;51.094;7.030;2022-08-19T09:25:21;21.70;99.90
22623;DHT22;11478;51.094;7.030;2022-08-19T09:27:48;21.70;99.90
22623;DHT22;11478;51.094;7.030;2022-08-19T09:30:27;21.90;99.90
22623;DHT22;11478;51.094;7.030;2022-08-19T09:32:54;21.90;99.90
22623;DHT22;11478;51.094;7.030;2022-08-19T09:35:30;22.00;99.90
22623;DHT22;11478;51.094;7.030;2022-08-19T09:38:02;22.10;99.90
22623;DHT22;11478;51.094;7.030;2022-08-19T09:40:33;22.20;99.90
22623;DHT22;11478;51.094;7.030;2022-08-19T09:42:59;22.30;99.90
22623;DHT22;11478;51.094;7.030;2022-08-19T09:45:29;22.30;99.90
22623;DHT22;11478;51.094;7.030;2022-08-19T09:47:56;22.40;99.90
22623;DHT22;11478;51.094;7.030;2022-08-19T09:50:25;22.40;99.90
22623;DHT22;11478;51.094;7.030;2022-08-19T09:52:51;22.50;99.90
22623;DHT22;11478;51.094;7.030;2022-08-19T09:55:20;22.50;99.90
22623;DHT22;11478;51.094;7.030;2022-08-19T09:57:49;22.60;99.90
22623;DHT22;11478;51.094;7.030;2022-08-19T10:00:15;22.60;99.90
22623;DHT22;11478;51.094;7.030;2022-08-19T10:03:04;22.70;99.90
22623;DHT22;11478;51.094;7.030;2022-08-19T10:05:30;22.70;99.90
22623;DHT22;11478;51.094;7.030;2022-08-19T10:08:21;22.70;99.90
22623;DHT22;11478;51.094;7.030;2022-08-19T10:10:56;22.80;99.90
22623;DHT22;11478;51.094;7.030;2022-08-19T10:13:32;22.80;99.90
22623;DHT22;11478;51.094;7.030;2022-08-19T10:16:18;22.90;99.90
22623;DHT22;11478;51.094;7.030;2022-08-19T10:18:49;23.00;99.90
22623;DHT22;11478;51.094;7.030;2022-08-19T10:21:20;23.10;99.90
22623;DHT22;11478;51.094;7.030;2022-08-19T10:23:58;23.20;99.90
22623;DHT22;11478;51.094;7.030;2022-08-19T10:26:36;23.20;99.90
22623;DHT22;11478;51.094;7.030;2022-08-19T10:29:04;23.20;99.90
22623;DHT22;11478;51.094;7.030;2022-08-19T10:31:32;23.20;99.90
22623;DHT22;11478;51.094;7.030;2022-08-19T10:33:59;23.20;99.90
22623;DHT22;11478;51.094;7.030;2022-08-19T10:36:34;23.20;99.90
22623;DHT22;11478;51.094;7.030;2022-08-19T10:39:05;23.20;99.90
22623;DHT22;11478;51.094;7.030;2022-08-19T10:41:36;23.30;99.90
22623;DHT22;11478;51.094;7.030;2022-08-19T10:44:16;23.30;99.90
22623;DHT22;11478;51.094;7.030;2022-08-19T10:46:46;23.40;99.90
22623;DHT22;11478;51.094;7.030;2022-08-19T10:49:13;23.50;99.90
22623;DHT22;11478;51.094;7.030;2022-08-19T10:51:43;23.60;99.90
22623;DHT22;11478;51.094;7.030;2022-08-19T10:54:46;23.60;99.90
22623;DHT22;11478;51.094;7.030;2022-08-19T11:00:24;23.50;99.90
22623;DHT22;11478;51.094;7.030;2022-08-19T11:02:55;23.60;99.90
22623;DHT22;11478;51.094;7.030;2022-08-19T11:05:28;23.80;99.90
22623;DHT22;11478;51.094;7.030;2022-08-19T11:10:28;24.00;99.90
22623;DHT22;11478;51.094;7.030;2022-08-19T11:12:54;24.00;99.90
22623;DHT22;11478;51.094;7.030;2022-08-19T11:15:29;23.90;99.90
22623;DHT22;11478;51.094;7.030;2022-08-19T11:17:58;23.80;99.90
22623;DHT22;11478;51.094;7.030;2022-08-19T11:20:27;23.70;99.90
22623;DHT22;11478;51.094;7.030;2022-08-19T11:23:02;23.50;99.90
22623;DHT22;11478;51.094;7.030;2022-08-19T11:25:59;23.40;99.90
22623;DHT22;11478;51.094;7.030;2022-08-19T11:31:02;23.20;99.90
22623;DHT22;11478;51.094;7.030;2022-08-19T11:43:53;23.30;99.90
22623;DHT22;11478;51.094;7.030;2022-08-19T11:46:25;23.60;99.90
22623;DHT22;11478;51.094;7.030;2022-08-19T11:49:02;23.80;99.90
22623;DHT22;11478;51.094;7.030;2022-08-19T11:51:29;24.10;99.90
22623;DHT22;11478;51.094;7.030;2022-08-19T11:53:59;24.20;99.90
22623;DHT22;11478;51.094;7.030;2022-08-19T11:56:44;24.30;99.90
22623;DHT22;11478;51.094;7.030;2022-08-19T11:59:22;24.20;99.90
22623;DHT22;11478;51.094;7.030;2022-08-19T12:02:02;24.20;99.90
22623;DHT22;11478;51.094;7.030;2022-08-19T12:04:32;24.20;99.90
22623;DHT22;11478;51.094;7.030;2022-08-19T12:06:58;24.00;99.90
22623;DHT22;11478;51.094;7.030;2022-08-19T12:09:27;24.00;99.90
22623;DHT22;11478;51.094;7.030;2022-08-19T12:11:53;23.90;99.90
22623;DHT22;11478;51.094;7.030;2022-08-19T12:14:36;24.00;99.90
22623;DHT22;11478;51.094;7.030;2022-08-19T12:17:38;24.10;99.90
22623;DHT22;11478;51.094;7.030;2022-08-19T12:20:16;24.20;99.90
22623;DHT22;11478;51.094;7.030;2022-08-19T12:23:11;24.30;99.90
22623;DHT22;11478;51.094;7.030;2022-08-19T12:25:46;24.60;99.90
22623;DHT22;11478;51.094;7.030;2022-08-19T12:30:57;24.70;99.90
22623;DHT22;11478;51.094;7.030;2022-08-19T12:41:09;24.20;99.90
22623;DHT22;11478;51.094;7.030;2022-08-19T12:43:38;24.20;99.90
22623;DHT22;11478;51.094;7.030;2022-08-19T12:46:08;24.30;99.90
22623;DHT22;11478;51.094;7.030;2022-08-19T12:48:37;24.30;99.90
22623;DHT22;11478;51.094;7.030;2022-08-19T12:56:20;24.20;99.90
22623;DHT22;11478;51.094;7.030;2022-08-19T12:58:49;24.20;99.90
22623;DHT22;11478;51.094;7.030;2022-08-19T13:01:24;24.20;99.90
22623;DHT22;11478;51.094;7.030;2022-08-19T13:04:07;24.30;99.90
22623;DHT22;11478;51.094;7.030;2022-08-19T13:06:36;24.40;99.90
22623;DHT22;11478;51.094;7.030;2022-08-19T13:09:21;24.60;99.90
22623;DHT22;11478;51.094;7.030;2022-08-19T13:12:00;24.60;99.90
22623;DHT22;11478;51.094;7.030;2022-08-19T13:14:44;24.80;99.90
22623;DHT22;11478;51.094;7.030;2022-08-19T13:26:09;25.20;99.90
22623;DHT22;11478;51.094;7.030;2022-08-19T13:28:46;25.30;99.90
22623;DHT22;11478;51.094;7.030;2022-08-19T13:31:40;25.30;99.90
22623;DHT22;11478;51.094;7.030;2022-08-19T13:34:57;25.10;99.90
22623;DHT22;11478;51.094;7.030;2022-08-19T13:37:27;25.20;99.90
22623;DHT22;11478;51.094;7.030;2022-08-19T13:40:24;25.40;99.90
22623;DHT22;11478;51.094;7.030;2022-08-19T13:43:05;25.70;99.90
22623;DHT22;11478;51.094;7.030;2022-08-19T13:45:53;25.90;99.90
22623;DHT22;11478;51.094;7.030;2022-08-19T13:48:49;25.90;99.90
22623;DHT22;11478;51.094;7.030;2022-08-19T13:52:19;25.80;99.90
22623;DHT22;11478;51.094;7.030;2022-08-19T13:55:21;25.80;99.90
22623;DHT22;11478;51.094;7.030;2022-08-19T14:01:36;26.10;99.90
22623;DHT22;11478;51.094;7.030;2022-08-19T14:04:15;26.40;99.90
22623;DHT22;11478;51.094;7.030;2022-08-19T14:07:20;26.30;99.90
22623;DHT22;11478;51.094;7.030;2022-08-19T14:10:07;26.40;99.90
22623;DHT22;11478;51.094;7.030;2022-08-19T14:16:07;26.50;99.90
22623;DHT22;11478;51.094;7.030;2022-08-19T14:26:47;26.60;98.00
22623;DHT22;11478;51.094;7.030;2022-08-19T14:29:26;26.70;98.30
22623;DHT22;11478;51.094;7.030;2022-08-19T14:32:20;26.80;98.40
22623;DHT22;11478;51.094;7.030;2022-08-19T14:35:12;26.90;98.80
22623;DHT22;11478;51.094;7.030;2022-08-19T14:37:54;26.90;98.30
22623;DHT22;11478;51.094;7.030;2022-08-19T14:40:38;26.80;98.90
22623;DHT22;11478;51.094;7.030;2022-08-19T14:43:05;26.80;98.00
22623;DHT22;11478;51.094;7.030;2022-08-19T14:45:37;26.90;98.50
22623;DHT22;11478;51.094;7.030;2022-08-19T14:48:05;27.00;96.30
22623;DHT22;11478;51.094;7.030;2022-08-19T14:50:33;27.00;96.60
22623;DHT22;11478;51.094;7.030;2022-08-19T14:53:10;27.00;97.30
22623;DHT22;11478;51.094;7.030;2022-08-19T14:55:44;26.90;96.60
22623;DHT22;11478;51.094;7.030;2022-08-19T14:58:11;26.70;96.00
22623;DHT22;11478;51.094;7.030;2022-08-19T15:00:42;26.50;97.20
22623;DHT22;11478;51.094;7.030;2022-08-19T15:03:24;26.40;97.30
22623;DHT22;11478;51.094;7.030;2022-08-19T15:06:06;26.30;97.50
22623;DHT22;11478;51.094;7.030;2022-08-19T15:08:39;26.20;97.30
22623;DHT22;11478;51.094;7.030;2022-08-19T15:11:11;26.20;99.70
22623;DHT22;11478;51.094;7.030;2022-08-19T15:13:38;26.20;96.60
22623;DHT22;11478;51.094;7.030;2022-08-19T15:16:09;26.40;96.30
22623;DHT22;11478;51.094;7.030;2022-08-19T15:18:36;26.50;96.10
22623;DHT22;11478;51.094;7.030;2022-08-19T15:21:12;26.50;97.00
22623;DHT22;11478;51.094;7.030;2022-08-19T15:24:01;26.40;95.00
22623;DHT22;11478;51.094;7.030;2022-08-19T15:26:39;26.30;96.30
22623;DHT22;11478;51.094;7.030;2022-08-19T15:29:42;26.40;96.50
22623;DHT22;11478;51.094;7.030;2022-08-19T15:32:17;26.50;98.20
22623;DHT22;11478;51.094;7.030;2022-08-19T15:34:47;26.60;95.80
22623;DHT22;11478;51.094;7.030;2022-08-19T15:40:00;26.50;96.20
22623;DHT22;11478;51.094;7.030;2022-08-19T15:42:28;26.50;95.80
22623;DHT22;11478;51.094;7.030;2022-08-19T15:44:54;26.40;95.70
22623;DHT22;11478;51.094;7.030;2022-08-19T15:47:44;26.20;95.70
22623;DHT22;11478;51.094;7.030;2022-08-19T15:50:19;26.20;96.80
22623;DHT22;11478;51.094;7.030;2022-08-19T15:52:57;26.20;96.20
22623;DHT22;11478;51.094;7.030;2022-08-19T15:55:27;26.30;95.80
22623;DHT22;11478;51.094;7.030;2022-08-19T16:06:19;26.40;96.30
22623;DHT22;11478;51.094;7.030;2022-08-19T16:08:52;26.30;95.40
22623;DHT22;11478;51.094;7.030;2022-08-19T16:11:22;26.10;95.10
22623;DHT22;11478;51.094;7.030;2022-08-19T16:13:52;25.90;96.30
22623;DHT22;11478;51.094;7.030;2022-08-19T16:16:25;25.90;97.60
22623;DHT22;11478;51.094;7.030;2022-08-19T16:18:56;25.80;99.20
22623;DHT22;11478;51.094;7.030;2022-08-19T16:21:26;25.90;97.70
22623;DHT22;11478;51.094;7.030;2022-08-19T16:23:56;25.80;97.30
22623;DHT22;11478;51.094;7.030;2022-08-19T16:26:22;25.70;99.00
22623;DHT22;11478;51.094;7.030;2022-08-19T16:28:50;25.60;99.00
22623;DHT22;11478;51.094;7.030;2022-08-19T16:31:17;25.40;99.80
22623;DHT22;11478;51.094;7.030;2022-08-19T16:33:43;25.30;99.90
22623;DHT22;11478;51.094;7.030;2022-08-19T16:36:09;25.20;99.90
22623;DHT22;11478;51.094;7.030;2022-08-19T16:38:35;25.00;99.90
22623;DHT22;11478;51.094;7.030;2022-08-19T16:41:02;24.90;99.90
22623;DHT22;11478;51.094;7.030;2022-08-19T16:43:28;24.80;99.90
22623;DHT22;11478;51.094;7.030;2022-08-19T16:45:58;24.70;99.90
22623;DHT22;11478;51.094;7.030;2022-08-19T16:48:28;24.70;99.90
22623;DHT22;11478;51.094;7.030;2022-08-19T16:50:56;24.70;99.90
22623;DHT22;11478;51.094;7.030;2022-08-19T16:53:23;24.60;99.90
22623;DHT22;11478;51.094;7.030;2022-08-19T16:56:03;24.60;99.90
22623;DHT22;11478;51.094;7.030;2022-08-19T16:58:33;24.60;99.90
22623;DHT22;11478;51.094;7.030;2022-08-19T17:01:05;24.50;99.90
22623;DHT22;11478;51.094;7.030;2022-08-19T17:03:33;24.40;99.90
22623;DHT22;11478;51.094;7.030;2022-08-19T17:06:00;24.40;99.90
22623;DHT22;11478;51.094;7.030;2022-08-19T17:08:31;24.30;99.90
22623;DHT22;11478;51.094;7.030;2022-08-19T17:10:59;24.20;99.90
22623;DHT22;11478;51.094;7.030;2022-08-19T17:13:27;24.10;99.90
22623;DHT22;11478;51.094;7.030;2022-08-19T17:15:55;24.10;99.90
22623;DHT22;11478;51.094;7.030;2022-08-19T17:18:21;24.00;99.90
22623;DHT22;11478;51.094;7.030;2022-08-19T17:20:48;24.00;99.90
22623;DHT22;11478;51.094;7.030;2022-08-19T17:23:15;24.00;99.90
22623;DHT22;11478;51.094;7.030;2022-08-19T17:25:40;23.90;99.90
22623;DHT22;11478;51.094;7.030;2022-08-19T17:28:10;23.90;99.90
22623;DHT22;11478;51.094;7.030;2022-08-19T17:30:37;23.80;99.90
22623;DHT22;11478;51.094;7.030;2022-08-19T17:33:04;23.80;99.90